Maersk Visby — 9V8827 — position and weather

sailwx.info

Track history (hours):
 
Tides and Currents Weather Stations Pressure Air Temp Water Temp Dewpoint Dewpoint Depression Visibility Wind Speed Wind Dir Waves Ship Positions

Maersk Visby

Last reported at 2017-Jan-17 20:16 UTC. Time now 2017-Jan-19 15:10 UTC.
Position S 33°55' E 018°16'.

Length 180 m; draft 7 m.

Type: Ship (hazmat cat A). MMSI: 564979000.

Date/timePositionNaut miles runAvg speedWind from/ knotsBaromVisibWave heightAir tempDewpointWater temp
2017-Jan-17 20:16S 33°55' E 018°16'811.3
2017-Jan-17 19:33S 33°53' E 018°26'1 1.3
2017-Jan-17 18:31S 33°55' E 018°26'0 0.0
2017-Jan-17 17:31S 33°55' E 018°26'0 0.0
2017-Jan-17 16:29S 33°55' E 018°26'0 0.0
2017-Jan-17 15:32S 33°55' E 018°26'0 0.0
2017-Jan-17 14:32S 33°55' E 018°26'0 0.0
2017-Jan-17 13:32S 33°55' E 018°26'0 0.0
2017-Jan-17 12:32S 33°55' E 018°26'0 0.0
2017-Jan-17 11:32S 33°55' E 018°26'0 0.0
2017-Jan-17 10:32S 33°55' E 018°26'0 0.0
2017-Jan-17 09:31S 33°55' E 018°26'0 0.0
2017-Jan-17 08:31S 33°55' E 018°26'0 0.0
2017-Jan-17 07:31S 33°55' E 018°26'0 0.0
2017-Jan-17 06:31S 33°55' E 018°26'0 0.0
2017-Jan-17 05:31S 33°55' E 018°26'0 0.0
2017-Jan-17 04:31S 33°55' E 018°26'0 0.0
2017-Jan-17 03:31S 33°55' E 018°26'0 0.0
2017-Jan-17 02:31S 33°55' E 018°26'0 0.0
2017-Jan-17 01:31S 33°55' E 018°26'0 0.0
2017-Jan-17 00:31S 33°55' E 018°26'0 0.0
2017-Jan-16 23:31S 33°55' E 018°26'0 0.0
2017-Jan-16 22:31S 33°55' E 018°26'0 0.0
2017-Jan-16 21:31S 33°55' E 018°26'0 0.0
2017-Jan-16 20:31S 33°55' E 018°26'0 0.0
2017-Jan-16 19:31S 33°55' E 018°26'0 0.0
2017-Jan-16 18:32S 33°55' E 018°26'0 0.0
2017-Jan-16 17:31S 33°55' E 018°26'0 0.0
2017-Jan-16 16:32S 33°55' E 018°26'0 0.0
2017-Jan-16 15:32S 33°55' E 018°26'0 0.0
2017-Jan-16 14:31S 33°55' E 018°26'0 0.0
2017-Jan-16 13:31S 33°55' E 018°26'0 0.0
2017-Jan-16 12:31S 33°55' E 018°26'0 0.0
2017-Jan-16 11:25S 33°55' E 018°26'0 0.0
2017-Jan-16 10:31S 33°55' E 018°26'0 0.0
2017-Jan-16 09:31S 33°55' E 018°26'0 0.0
2017-Jan-16 08:25S 33°55' E 018°26'0 0.0
2017-Jan-16 07:31S 33°55' E 018°26'0 0.0
2017-Jan-16 06:31S 33°55' E 018°26'0 0.0
2017-Jan-16 05:31S 33°55' E 018°26'0 0.0
2017-Jan-16 04:31S 33°55' E 018°26'0 0.0
2017-Jan-16 03:31S 33°55' E 018°26'0 0.0
2017-Jan-16 02:31S 33°55' E 018°26'0 0.0
2017-Jan-16 01:31S 33°55' E 018°26'0 0.0
2017-Jan-16 00:28S 33°55' E 018°26'0 0.0
2017-Jan-15 23:31S 33°55' E 018°26'0 0.0
2017-Jan-15 22:31S 33°55' E 018°26'0 0.0
2017-Jan-15 21:31S 33°55' E 018°26'0 0.0
2017-Jan-15 20:31S 33°55' E 018°26'0 0.0
2017-Jan-15 19:28S 33°55' E 018°26'0 0.0
2017-Jan-15 18:31S 33°55' E 018°26'0 0.0
2017-Jan-15 17:31S 33°55' E 018°26'0 0.0
2017-Jan-15 16:31S 33°55' E 018°26'0 0.0
2017-Jan-15 15:25S 33°55' E 018°26'0 0.0
2017-Jan-15 14:31S 33°55' E 018°26'0 0.0
2017-Jan-15 13:28S 33°55' E 018°26'0 0.0
2017-Jan-15 12:22S 33°55' E 018°26'0 0.0
2017-Jan-15 11:31S 33°55' E 018°26'0 0.0
2017-Jan-15 10:28S 33°55' E 018°26'0 0.0
2017-Jan-15 09:28S 33°55' E 018°26'0 0.0
2017-Jan-15 08:31S 33°55' E 018°26'2 2.4
2017-Jan-15 07:33S 33°52' E 018°26'2 2.4
2017-Jan-15 06:33S 33°52' E 018°23'3 3.0
2017-Jan-15 05:33S 33°54' E 018°20'4 4.1
2017-Jan-15 04:33S 33°58' E 018°18'  
2017-Jan-12 18:26S 30°28' E 030°46'1112.5
2017-Jan-12 17:33S 30°19' E 030°53'1212.1
2017-Jan-12 16:33S 30°08' E 030°59'1111.3
2017-Jan-12 15:33S 29°58' E 031°06'6 6.0
2017-Jan-12 14:33S 29°53' E 031°03'0 0.5
2017-Jan-12 13:32S 29°52' E 031°03'0 0.0
2017-Jan-12 12:32S 29°52' E 031°03'0 0.0
2017-Jan-12 11:32S 29°52' E 031°03'0 0.0
2017-Jan-12 10:32S 29°52' E 031°03'0 0.0
2017-Jan-12 09:32S 29°52' E 031°03'0 0.0
2017-Jan-12 08:32S 29°52' E 031°03'0 0.0
2017-Jan-12 07:32S 29°52' E 031°03'0 0.0
2017-Jan-12 06:32S 29°52' E 031°03'0 0.0
2017-Jan-12 05:29S 29°52' E 031°03'0 0.0
2017-Jan-12 04:32S 29°52' E 031°03'0 0.0
2017-Jan-12 03:32S 29°52' E 031°03'0 0.0
2017-Jan-12 02:32S 29°52' E 031°03'0 0.0
2017-Jan-12 01:32S 29°52' E 031°03'0 0.0
2017-Jan-12 00:32S 29°52' E 031°03'0 0.0
2017-Jan-11 23:32S 29°52' E 031°03'0 0.0
2017-Jan-11 22:32S 29°52' E 031°03'0 0.0
2017-Jan-11 21:32S 29°52' E 031°03'0 0.0
2017-Jan-11 20:32S 29°52' E 031°03'0 0.0
2017-Jan-11 19:32S 29°52' E 031°03'0 0.0
2017-Jan-11 18:32S 29°52' E 031°03'0 0.0
2017-Jan-11 17:32S 29°52' E 031°03'0 0.0
2017-Jan-11 16:32S 29°52' E 031°03'0 0.0
2017-Jan-11 15:32S 29°52' E 031°03'0 0.0
2017-Jan-11 14:32S 29°52' E 031°03'0 0.0
2017-Jan-11 13:32S 29°52' E 031°03'0 0.0
2017-Jan-11 12:32S 29°52' E 031°03'0 0.0
2017-Jan-11 11:32S 29°52' E 031°03'0 0.0
2017-Jan-11 10:32S 29°52' E 031°03'0 0.0
2017-Jan-11 09:32S 29°52' E 031°03'0 0.0
2017-Jan-11 08:32S 29°52' E 031°03'0 0.0
2017-Jan-11 07:32S 29°52' E 031°03'0 0.0
2017-Jan-11 06:32S 29°52' E 031°03'0 0.0
2017-Jan-11 05:32S 29°52' E 031°03'0 0.0
2017-Jan-11 04:32S 29°52' E 031°03'0 0.0
2017-Jan-11 03:32S 29°52' E 031°03'0 0.0
2017-Jan-11 02:32S 29°52' E 031°03'0 0.0
2017-Jan-11 01:32S 29°52' E 031°03'0 0.0
2017-Jan-11 00:32S 29°52' E 031°03'0 0.0
2017-Jan-10 23:32S 29°52' E 031°03'0 0.0
2017-Jan-10 22:32S 29°52' E 031°03'0 0.0
2017-Jan-10 21:32S 29°52' E 031°03'0 0.0
2017-Jan-10 20:32S 29°52' E 031°03'0 0.0
2017-Jan-10 19:32S 29°52' E 031°03'0 0.0
2017-Jan-10 18:32S 29°52' E 031°03'0 0.0
2017-Jan-10 17:32S 29°52' E 031°03'0 0.0
2017-Jan-10 16:32S 29°52' E 031°03'0 0.0
2017-Jan-10 15:32S 29°52' E 031°03'0 0.0
2017-Jan-10 14:32S 29°52' E 031°03'0 0.0
2017-Jan-10 13:32S 29°52' E 031°03'0 0.0
2017-Jan-10 12:32S 29°52' E 031°03'0 0.0
2017-Jan-10 11:32S 29°52' E 031°03'0 0.0
2017-Jan-10 10:32S 29°52' E 031°03'0 0.0
2017-Jan-10 09:32S 29°52' E 031°03'0 0.0
2017-Jan-10 08:32S 29°52' E 031°03'0 0.0
2017-Jan-10 07:32S 29°52' E 031°03'0 0.0
2017-Jan-10 06:32S 29°52' E 031°03'0 0.0
2017-Jan-10 05:32S 29°52' E 031°03'0 0.0
2017-Jan-10 04:32S 29°52' E 031°03'0 0.0
2017-Jan-10 03:32S 29°52' E 031°03'0 0.0
2017-Jan-10 02:32S 29°52' E 031°03'0 0.0
2017-Jan-10 01:32S 29°52' E 031°03'0 0.0
2017-Jan-10 00:32S 29°52' E 031°03'0 0.0
2017-Jan-09 23:32S 29°52' E 031°03'0 0.0
2017-Jan-09 22:32S 29°52' E 031°03'0 0.0
2017-Jan-09 21:29S 29°52' E 031°03'0 0.0
2017-Jan-09 20:32S 29°52' E 031°03'0 0.0
2017-Jan-09 19:32S 29°52' E 031°03'0 0.0
2017-Jan-09 18:32S 29°52' E 031°03'3 2.6
2017-Jan-09 17:34S 29°51' E 031°05'10 9.7
2017-Jan-09 16:33S 30°01' E 031°05'1212.5
2017-Jan-09 15:34S 30°11' E 030°57'1313.2
2017-Jan-09 14:32S 30°22' E 030°48'  
Track history (hours):
 
Tides and Currents Weather Stations Pressure Air Temp Water Temp Dewpoint Dewpoint Depression Visibility Wind Speed Wind Dir Waves Ship Positions

Maersk Visby

Last reported at 2017-Jan-17 20:16 UTC. Time now 2017-Jan-19 15:10 UTC.
Position S 33°55' E 018°16'.

Length 180 m; draft 7 m.

Type: Ship (hazmat cat A). MMSI: 564979000.

Date/timePositionNaut miles runAvg speedWind from/ knotsBaromVisibWave heightAir tempDewpointWater temp
2017-Jan-17 20:16S 33°55' E 018°16'811.3
2017-Jan-17 19:33S 33°53' E 018°26'1 1.3
2017-Jan-17 18:31S 33°55' E 018°26'0 0.0
2017-Jan-17 17:31S 33°55' E 018°26'0 0.0
2017-Jan-17 16:29S 33°55' E 018°26'0 0.0
2017-Jan-17 15:32S 33°55' E 018°26'0 0.0
2017-Jan-17 14:32S 33°55' E 018°26'0 0.0
2017-Jan-17 13:32S 33°55' E 018°26'0 0.0
2017-Jan-17 12:32S 33°55' E 018°26'0 0.0
2017-Jan-17 11:32S 33°55' E 018°26'0 0.0
2017-Jan-17 10:32S 33°55' E 018°26'0 0.0
2017-Jan-17 09:31S 33°55' E 018°26'0 0.0
2017-Jan-17 08:31S 33°55' E 018°26'0 0.0
2017-Jan-17 07:31S 33°55' E 018°26'0 0.0
2017-Jan-17 06:31S 33°55' E 018°26'0 0.0
2017-Jan-17 05:31S 33°55' E 018°26'0 0.0
2017-Jan-17 04:31S 33°55' E 018°26'0 0.0
2017-Jan-17 03:31S 33°55' E 018°26'0 0.0
2017-Jan-17 02:31S 33°55' E 018°26'0 0.0
2017-Jan-17 01:31S 33°55' E 018°26'0 0.0
2017-Jan-17 00:31S 33°55' E 018°26'0 0.0
2017-Jan-16 23:31S 33°55' E 018°26'0 0.0
2017-Jan-16 22:31S 33°55' E 018°26'0 0.0
2017-Jan-16 21:31S 33°55' E 018°26'0 0.0
2017-Jan-16 20:31S 33°55' E 018°26'0 0.0
2017-Jan-16 19:31S 33°55' E 018°26'0 0.0
2017-Jan-16 18:32S 33°55' E 018°26'0 0.0
2017-Jan-16 17:31S 33°55' E 018°26'0 0.0
2017-Jan-16 16:32S 33°55' E 018°26'0 0.0
2017-Jan-16 15:32S 33°55' E 018°26'0 0.0
2017-Jan-16 14:31S 33°55' E 018°26'0 0.0
2017-Jan-16 13:31S 33°55' E 018°26'0 0.0
2017-Jan-16 12:31S 33°55' E 018°26'0 0.0
2017-Jan-16 11:25S 33°55' E 018°26'0 0.0
2017-Jan-16 10:31S 33°55' E 018°26'0 0.0
2017-Jan-16 09:31S 33°55' E 018°26'0 0.0
2017-Jan-16 08:25S 33°55' E 018°26'0 0.0
2017-Jan-16 07:31S 33°55' E 018°26'0 0.0
2017-Jan-16 06:31S 33°55' E 018°26'0 0.0
2017-Jan-16 05:31S 33°55' E 018°26'0 0.0
2017-Jan-16 04:31S 33°55' E 018°26'0 0.0
2017-Jan-16 03:31S 33°55' E 018°26'0 0.0
2017-Jan-16 02:31S 33°55' E 018°26'0 0.0
2017-Jan-16 01:31S 33°55' E 018°26'0 0.0
2017-Jan-16 00:28S 33°55' E 018°26'0 0.0
2017-Jan-15 23:31S 33°55' E 018°26'0 0.0
2017-Jan-15 22:31S 33°55' E 018°26'0 0.0
2017-Jan-15 21:31S 33°55' E 018°26'0 0.0
2017-Jan-15 20:31S 33°55' E 018°26'0 0.0
2017-Jan-15 19:28S 33°55' E 018°26'0 0.0
2017-Jan-15 18:31S 33°55' E 018°26'0 0.0
2017-Jan-15 17:31S 33°55' E 018°26'0 0.0
2017-Jan-15 16:31S 33°55' E 018°26'0 0.0
2017-Jan-15 15:25S 33°55' E 018°26'0 0.0
2017-Jan-15 14:31S 33°55' E 018°26'0 0.0
2017-Jan-15 13:28S 33°55' E 018°26'0 0.0
2017-Jan-15 12:22S 33°55' E 018°26'0 0.0
2017-Jan-15 11:31S 33°55' E 018°26'0 0.0
2017-Jan-15 10:28S 33°55' E 018°26'0 0.0
2017-Jan-15 09:28S 33°55' E 018°26'0 0.0
2017-Jan-15 08:31S 33°55' E 018°26'2 2.4
2017-Jan-15 07:33S 33°52' E 018°26'2 2.4
2017-Jan-15 06:33S 33°52' E 018°23'3 3.0
2017-Jan-15 05:33S 33°54' E 018°20'4 4.1
2017-Jan-15 04:33S 33°58' E 018°18'  
2017-Jan-12 18:26S 30°28' E 030°46'1112.5
2017-Jan-12 17:33S 30°19' E 030°53'1212.1
2017-Jan-12 16:33S 30°08' E 030°59'1111.3
2017-Jan-12 15:33S 29°58' E 031°06'6 6.0
2017-Jan-12 14:33S 29°53' E 031°03'0 0.5
2017-Jan-12 13:32S 29°52' E 031°03'0 0.0
2017-Jan-12 12:32S 29°52' E 031°03'0 0.0
2017-Jan-12 11:32S 29°52' E 031°03'0 0.0
2017-Jan-12 10:32S 29°52' E 031°03'0 0.0
2017-Jan-12 09:32S 29°52' E 031°03'0 0.0
2017-Jan-12 08:32S 29°52' E 031°03'0 0.0
2017-Jan-12 07:32S 29°52' E 031°03'0 0.0
2017-Jan-12 06:32S 29°52' E 031°03'0 0.0
2017-Jan-12 05:29S 29°52' E 031°03'0 0.0
2017-Jan-12 04:32S 29°52' E 031°03'0 0.0
2017-Jan-12 03:32S 29°52' E 031°03'0 0.0
2017-Jan-12 02:32S 29°52' E 031°03'0 0.0
2017-Jan-12 01:32S 29°52' E 031°03'0 0.0
2017-Jan-12 00:32S 29°52' E 031°03'0 0.0
2017-Jan-11 23:32S 29°52' E 031°03'0 0.0
2017-Jan-11 22:32S 29°52' E 031°03'0 0.0
2017-Jan-11 21:32S 29°52' E 031°03'0 0.0
2017-Jan-11 20:32S 29°52' E 031°03'0 0.0
2017-Jan-11 19:32S 29°52' E 031°03'0 0.0
2017-Jan-11 18:32S 29°52' E 031°03'0 0.0
2017-Jan-11 17:32S 29°52' E 031°03'0 0.0
2017-Jan-11 16:32S 29°52' E 031°03'0 0.0
2017-Jan-11 15:32S 29°52' E 031°03'0 0.0
2017-Jan-11 14:32S 29°52' E 031°03'0 0.0
2017-Jan-11 13:32S 29°52' E 031°03'0 0.0
2017-Jan-11 12:32S 29°52' E 031°03'0 0.0
2017-Jan-11 11:32S 29°52' E 031°03'0 0.0
2017-Jan-11 10:32S 29°52' E 031°03'0 0.0
2017-Jan-11 09:32S 29°52' E 031°03'0 0.0
2017-Jan-11 08:32S 29°52' E 031°03'0 0.0
2017-Jan-11 07:32S 29°52' E 031°03'0 0.0
2017-Jan-11 06:32S 29°52' E 031°03'0 0.0
2017-Jan-11 05:32S 29°52' E 031°03'0 0.0
2017-Jan-11 04:32S 29°52' E 031°03'0 0.0
2017-Jan-11 03:32S 29°52' E 031°03'0 0.0
2017-Jan-11 02:32S 29°52' E 031°03'0 0.0
2017-Jan-11 01:32S 29°52' E 031°03'0 0.0
2017-Jan-11 00:32S 29°52' E 031°03'0 0.0
2017-Jan-10 23:32S 29°52' E 031°03'0 0.0
2017-Jan-10 22:32S 29°52' E 031°03'0 0.0
2017-Jan-10 21:32S 29°52' E 031°03'0 0.0
2017-Jan-10 20:32S 29°52' E 031°03'0 0.0
2017-Jan-10 19:32S 29°52' E 031°03'0 0.0
2017-Jan-10 18:32S 29°52' E 031°03'0 0.0
2017-Jan-10 17:32S 29°52' E 031°03'0 0.0
2017-Jan-10 16:32S 29°52' E 031°03'0 0.0
2017-Jan-10 15:32S 29°52' E 031°03'0 0.0
2017-Jan-10 14:32S 29°52' E 031°03'0 0.0
2017-Jan-10 13:32S 29°52' E 031°03'0 0.0
2017-Jan-10 12:32S 29°52' E 031°03'0 0.0
2017-Jan-10 11:32S 29°52' E 031°03'0 0.0
2017-Jan-10 10:32S 29°52' E 031°03'0 0.0
2017-Jan-10 09:32S 29°52' E 031°03'0 0.0
2017-Jan-10 08:32S 29°52' E 031°03'0 0.0
2017-Jan-10 07:32S 29°52' E 031°03'0 0.0
2017-Jan-10 06:32S 29°52' E 031°03'0 0.0
2017-Jan-10 05:32S 29°52' E 031°03'0 0.0
2017-Jan-10 04:32S 29°52' E 031°03'0 0.0
2017-Jan-10 03:32S 29°52' E 031°03'0 0.0
2017-Jan-10 02:32S 29°52' E 031°03'0 0.0
2017-Jan-10 01:32S 29°52' E 031°03'0 0.0
2017-Jan-10 00:32S 29°52' E 031°03'0 0.0
2017-Jan-09 23:32S 29°52' E 031°03'0 0.0
2017-Jan-09 22:32S 29°52' E 031°03'0 0.0
2017-Jan-09 21:29S 29°52' E 031°03'0 0.0
2017-Jan-09 20:32S 29°52' E 031°03'0 0.0
2017-Jan-09 19:32S 29°52' E 031°03'0 0.0
2017-Jan-09 18:32S 29°52' E 031°03'3 2.6
2017-Jan-09 17:34S 29°51' E 031°05'10 9.7
2017-Jan-09 16:33S 30°01' E 031°05'1212.5
2017-Jan-09 15:34S 30°11' E 030°57'1313.2
2017-Jan-09 14:32S 30°22' E 030°48'  

Dump ship's entire track history